»·PEaware :: N462GB KBUR-KLAS

N462GB :: KBUR-KLAS

FLIGHT INFORMATION

Flight Status: Arrived
Operator: Privately registered:
United States
More flights under this callsign
Pilot: Galeno G. (3087)
Aircraft: BEECH AIRCRAFT BONANZA
(BE36)
More flights by this aircraft type
Origin: KBUR Bob Hope-Burbank
United States
Destination: KLAS McCarran Intl
United States
More flights between these airports :: More routes between these airports
Route: +VNY3 DAG CRESO4
File this flight plan on PilotEdge
Remarks:
Altitude:
(Current/Filed)
9,000ft
Speed:
(Current/Filed)
140kts
Departed: 20-Nov-20 04:14 PM
Arrived: 20-Nov-20 05:32 PM
Distance/Time
Traveled:
194nm/1:18
Distance/Time
To Go:
Arrived

Flight Plot

Page will automatically refresh every two minutes.

Flight plan parsing failed; only flown route is shown


Map Options




Map Legend


Flown Route
Filed Route
Departure Airport
Arrival Airport
Navaid (VOR, NDB)
Fix

Horizontal Profiles

Position Reports

Time Latitude Longitude Heading Altitude Ground
Speed
20-Nov-20 15:56 34.200057 -118.365483 180 723ft 0kts
20-Nov-20 15:57 34.200057 -118.365483 180 723ft 0kts
20-Nov-20 15:58 34.200057 -118.365483 180 723ft 0kts
20-Nov-20 15:59 34.200057 -118.365483 180 723ft 0kts
20-Nov-20 16:00 34.200057 -118.365483 180 723ft 0kts
20-Nov-20 16:01 34.200057 -118.365483 180 723ft 0kts
20-Nov-20 16:02 34.200057 -118.365483 180 723ft 0kts
20-Nov-20 16:03 34.200057 -118.365483 180 723ft 0kts
20-Nov-20 16:04 34.200057 -118.365483 180 723ft 0kts
20-Nov-20 16:05 34.200057 -118.365483 180 723ft 0kts
20-Nov-20 16:06 34.200057 -118.365483 180 723ft 0kts
20-Nov-20 16:07 34.200057 -118.365483 180 723ft 0kts
20-Nov-20 16:08 34.200057 -118.365483 180 723ft 0kts
20-Nov-20 16:09 34.199998 -118.365509 211 723ft 4kts
20-Nov-20 16:10 34.199085 -118.368446 270 728ft 10kts
20-Nov-20 16:11 34.198857 -118.368911 191 729ft 0kts
20-Nov-20 16:12 34.197928 -118.368581 91 728ft 0kts
20-Nov-20 16:13 34.197000 -118.344230 109 1180ft 117kts
20-Nov-20 16:14 34.172645 -118.351221 225 2553ft 111kts
20-Nov-20 16:15 34.150919 -118.378460 226 4158ft 115kts
20-Nov-20 16:16 34.145176 -118.409061 338 5837ft 121kts
20-Nov-20 16:17 34.178448 -118.414828 353 7547ft 122kts
20-Nov-20 16:18 34.212535 -118.419215 353 9216ft 124kts
20-Nov-20 16:19 34.247552 -118.423915 353 10726ft 137kts
20-Nov-20 16:20 34.293304 -118.430091 353 10979ft 181kts
20-Nov-20 16:21 34.343158 -118.427433 35 10999ft 188kts
20-Nov-20 16:22 34.381047 -118.383545 53 10999ft 189kts
20-Nov-20 16:23 34.415913 -118.335778 41 10998ft 189kts
20-Nov-20 16:24 34.455331 -118.293225 41 11000ft 189kts
20-Nov-20 16:25 34.495044 -118.251047 41 11000ft 190kts
20-Nov-20 16:26 34.535093 -118.209200 40 11001ft 190kts
20-Nov-20 16:27 34.571818 -118.163536 52 11000ft 189kts
20-Nov-20 16:28 34.603924 -118.112929 52 11000ft 189kts
20-Nov-20 16:29 34.630103 -118.058332 79 11000ft 189kts
20-Nov-20 16:30 34.636376 -117.995174 86 10999ft 189kts
20-Nov-20 16:31 34.644705 -117.932076 80 10999ft 189kts
20-Nov-20 16:32 34.653936 -117.869320 80 10999ft 189kts
20-Nov-20 16:33 34.662533 -117.806264 81 11000ft 189kts
20-Nov-20 16:34 34.672127 -117.743433 78 10999ft 189kts
20-Nov-20 16:35 34.684813 -117.681593 71 11000ft 189kts
20-Nov-20 16:36 34.700111 -117.620381 73 11000ft 189kts
20-Nov-20 16:37 34.715554 -117.559136 73 10999ft 189kts
20-Nov-20 16:38 34.731045 -117.497717 73 10999ft 189kts
20-Nov-20 16:39 34.746453 -117.436613 73 11000ft 189kts
20-Nov-20 16:40 34.761885 -117.375406 73 10999ft 189kts
20-Nov-20 16:41 34.777334 -117.314117 73 10999ft 189kts
20-Nov-20 16:42 34.792778 -117.252879 73 11000ft 189kts
20-Nov-20 16:43 34.808186 -117.191675 73 11000ft 189kts
20-Nov-20 16:44 34.823612 -117.130373 73 11000ft 189kts
20-Nov-20 16:45 34.839105 -117.068963 73 11000ft 189kts
20-Nov-20 16:46 34.854521 -117.007675 73 10998ft 189kts
20-Nov-20 16:47 34.869937 -116.946379 73 11000ft 189kts
20-Nov-20 16:48 34.885375 -116.885005 73 10999ft 189kts
20-Nov-20 16:49 34.900777 -116.823762 73 10999ft 189kts
20-Nov-20 16:50 34.916240 -116.762234 73 10999ft 189kts
20-Nov-20 16:51 34.931517 -116.700881 73 10999ft 189kts
20-Nov-20 16:52 34.946646 -116.639565 73 10999ft 189kts
20-Nov-20 16:53 34.962321 -116.578237 69 10999ft 189kts
20-Nov-20 16:54 34.987626 -116.521701 62 11000ft 190kts
20-Nov-20 16:55 35.012785 -116.465103 61 10999ft 189kts
20-Nov-20 16:56 35.037877 -116.408532 61 10999ft 189kts
20-Nov-20 16:57 35.063020 -116.351758 62 11000ft 190kts
20-Nov-20 16:59 35.088073 -116.295114 61 10999ft 189kts
20-Nov-20 17:00 35.113075 -116.238470 62 11000ft 189kts
20-Nov-20 17:01 35.138092 -116.181722 62 10999ft 189kts
20-Nov-20 17:02 35.163116 -116.124854 62 11000ft 190kts
20-Nov-20 17:03 35.188143 -116.067899 62 10999ft 189kts
20-Nov-20 17:04 35.213079 -116.011041 62 11000ft 189kts
20-Nov-20 17:05 35.237936 -115.954268 62 11000ft 190kts
20-Nov-20 17:06 35.252073 -115.921949 62 11000ft 190kts
20-Nov-20 17:07 35.275766 -115.867699 62 11000ft 190kts
20-Nov-20 17:08 35.300635 -115.810662 62 11000ft 190kts
20-Nov-20 17:09 35.331988 -115.758652 45 10999ft 190kts
20-Nov-20 17:10 35.367790 -115.711042 47 10999ft 190kts
20-Nov-20 17:11 35.403444 -115.663450 47 11000ft 190kts
20-Nov-20 17:12 35.439239 -115.615613 47 11000ft 190kts
20-Nov-20 17:13 35.474982 -115.567787 47 10998ft 190kts
20-Nov-20 17:13 35.504730 -115.527928 47 10998ft 190kts
20-Nov-20 17:15 35.546396 -115.472060 47 11000ft 189kts
20-Nov-20 17:16 35.582015 -115.424234 47 11000ft 190kts
20-Nov-20 17:16 35.611691 -115.384329 47 11000ft 190kts
20-Nov-20 17:18 35.652536 -115.329341 47 10776ft 182kts
20-Nov-20 17:18 35.680982 -115.290972 47 10361ft 182kts
20-Nov-20 17:19 35.721991 -115.255188 31 9855ft 180kts
20-Nov-20 17:20 35.764372 -115.222673 32 9354ft 178kts
20-Nov-20 17:21 35.806534 -115.191851 18 9025ft 172kts
20-Nov-20 17:22 35.854268 -115.178119 11 8348ft 177kts
20-Nov-20 17:23 35.902291 -115.165171 12 7648ft 176kts
20-Nov-20 17:24 35.949491 -115.152144 12 6874ft 170kts
20-Nov-20 17:25 35.994097 -115.139663 12 6024ft 160kts
20-Nov-20 17:26 36.036959 -115.127600 11 5057ft 145kts
20-Nov-20 17:27 36.077639 -115.118240 5 4213ft 146kts
20-Nov-20 17:28 36.114749 -115.111164 7 3703ft 126kts
20-Nov-20 17:29 36.121815 -115.139639 235 2703ft 91kts
20-Nov-20 17:30 36.102199 -115.155013 205 2178ft 84kts
20-Nov-20 17:31 36.094322 -115.161391 283 2110ft 0kts
20-Nov-20 17:32 36.094540 -115.161765 26 2110ft 9kts
20-Nov-20 17:33 36.098559 -115.161337 35 2098ft 12kts
20-Nov-20 17:34 36.098980 -115.161247 5 2098ft 0kts

Navigation Log

Ident Type
Flight plan parsing failed, navigation log unavailable